Terminal Aerodrome Forecast
Issued by NWS

Home | Current Version | Previous Version | Graphics & Text | Print | Product List | Glossary On
Versions: 1 2 3 4 5 6 7 8 9 10 11 12
661
FTUS43 KICT 101727
TAFHUT
TAF
KHUT 101727Z 1018/1118 31015KT P6SM SKC
     FM102300 30008KT P6SM SKC
     FM110500 VRB04KT P6SM SKC
     FM111300 30012KT P6SM SKC
     FM111600 32018G28KT P6SM SKC=

USA.gov is the U.S. government's official web portal to all federal, state and local government web resources and services.